sensor_id;sensor_type;location;lat;lon;timestamp;pressure;altitude;pressure_sealevel;temperature;humidity
69171;BME280;56279;47.902;12.308;2023-05-24T00:01:52;95511.50;;;14.47;91.32
69171;BME280;56279;47.902;12.308;2023-05-24T00:03:57;95504.34;;;14.47;91.27
69171;BME280;56279;47.902;12.308;2023-05-24T00:06:00;95506.19;;;14.47;91.70
69171;BME280;56279;47.902;12.308;2023-05-24T00:08:02;95507.78;;;14.48;91.65
69171;BME280;56279;47.902;12.308;2023-05-24T00:10:05;95499.81;;;14.48;92.10
69171;BME280;56279;47.902;12.308;2023-05-24T00:12:09;95496.38;;;14.47;91.72
69171;BME280;56279;47.902;12.308;2023-05-24T00:14:10;95494.00;;;14.46;91.56
69171;BME280;56279;47.902;12.308;2023-05-24T00:16:11;95496.69;;;14.46;91.21
69171;BME280;56279;47.902;12.308;2023-05-24T00:18:13;95493.53;;;14.44;91.50
69171;BME280;56279;47.902;12.308;2023-05-24T00:20:14;95495.41;;;14.43;91.23
69171;BME280;56279;47.902;12.308;2023-05-24T00:22:16;95495.69;;;14.42;90.99
69171;BME280;56279;47.902;12.308;2023-05-24T00:24:20;95499.63;;;14.44;90.91
69171;BME280;56279;47.902;12.308;2023-05-24T00:26:21;95498.84;;;14.44;90.68
69171;BME280;56279;47.902;12.308;2023-05-24T00:28:29;95489.28;;;14.43;90.62
69171;BME280;56279;47.902;12.308;2023-05-24T00:30:34;95490.09;;;14.43;90.75
69171;BME280;56279;47.902;12.308;2023-05-24T00:32:35;95490.38;;;14.42;90.65
69171;BME280;56279;47.902;12.308;2023-05-24T00:34:37;95488.81;;;14.41;90.72
69171;BME280;56279;47.902;12.308;2023-05-24T00:36:39;95485.06;;;14.42;90.73
69171;BME280;56279;47.902;12.308;2023-05-24T00:38:40;95493.81;;;14.42;90.82
69171;BME280;56279;47.902;12.308;2023-05-24T00:40:41;95490.09;;;14.43;90.76
69171;BME280;56279;47.902;12.308;2023-05-24T00:42:43;95485.84;;;14.42;91.08
69171;BME280;56279;47.902;12.308;2023-05-24T00:44:44;95485.84;;;14.42;91.09
69171;BME280;56279;47.902;12.308;2023-05-24T00:46:46;95480.84;;;14.41;91.28
69171;BME280;56279;47.902;12.308;2023-05-24T00:48:48;95476.91;;;14.38;91.42
69171;BME280;56279;47.902;12.308;2023-05-24T00:50:51;95476.72;;;14.35;91.24
69171;BME280;56279;47.902;12.308;2023-05-24T00:52:53;95481.50;;;14.33;91.25
69171;BME280;56279;47.902;12.308;2023-05-24T00:54:54;95477.84;;;14.29;91.36
69171;BME280;56279;47.902;12.308;2023-05-24T00:57:02;95471.56;;;14.25;91.30
69171;BME280;56279;47.902;12.308;2023-05-24T00:59:04;95476.88;;;14.25;91.24
69171;BME280;56279;47.902;12.308;2023-05-24T01:01:06;95474.31;;;14.20;91.32
69171;BME280;56279;47.902;12.308;2023-05-24T01:03:08;95476.78;;;14.16;91.39
69171;BME280;56279;47.902;12.308;2023-05-24T01:05:11;95480.53;;;14.15;91.34
69171;BME280;56279;47.902;12.308;2023-05-24T01:07:26;95474.22;;;14.11;91.71
69171;BME280;56279;47.902;12.308;2023-05-24T01:09:49;95475.41;;;14.05;91.44
69171;BME280;56279;47.902;12.308;2023-05-24T01:14:43;95474.00;;;13.94;91.53
69171;BME280;56279;47.902;12.308;2023-05-24T01:16:55;95471.66;;;13.93;91.37
69171;BME280;56279;47.902;12.308;2023-05-24T01:19:06;95480.69;;;13.92;91.79
69171;BME280;56279;47.902;12.308;2023-05-24T01:28:28;95471.66;;;13.93;91.53
69171;BME280;56279;47.902;12.308;2023-05-24T01:30:31;95474.31;;;13.93;91.64
69171;BME280;56279;47.902;12.308;2023-05-24T01:32:33;95478.03;;;13.92;91.71
69171;BME280;56279;47.902;12.308;2023-05-24T01:34:35;95482.56;;;13.91;91.53
69171;BME280;56279;47.902;12.308;2023-05-24T01:36:37;95473.84;;;13.91;91.90
69171;BME280;56279;47.902;12.308;2023-05-24T01:38:39;95478.34;;;13.90;91.48
69171;BME280;56279;47.902;12.308;2023-05-24T01:40:46;95477.56;;;13.90;91.68
69171;BME280;56279;47.902;12.308;2023-05-24T01:43:42;95470.97;;;13.87;91.40
69171;BME280;56279;47.902;12.308;2023-05-24T01:45:24;95470.47;;;13.85;91.17
69171;BME280;56279;47.902;12.308;2023-05-24T01:49:41;95473.31;;;13.88;91.69
69171;BME280;56279;47.902;12.308;2023-05-24T01:51:49;95468.53;;;13.91;91.77
69171;BME280;56279;47.902;12.308;2023-05-24T01:53:56;95470.88;;;13.92;92.00
69171;BME280;56279;47.902;12.308;2023-05-24T01:56:01;95473.22;;;13.94;91.95
69171;BME280;56279;47.902;12.308;2023-05-24T01:58:07;95473.22;;;13.94;92.25
69171;BME280;56279;47.902;12.308;2023-05-24T02:00:13;95475.13;;;13.93;92.45
69171;BME280;56279;47.902;12.308;2023-05-24T02:02:16;95472.16;;;13.95;92.53
69171;BME280;56279;47.902;12.308;2023-05-24T02:04:18;95472.16;;;13.95;92.64
69171;BME280;56279;47.902;12.308;2023-05-24T02:06:20;95473.22;;;13.94;92.81
69171;BME280;56279;47.902;12.308;2023-05-24T02:08:24;95475.88;;;13.94;92.53
69171;BME280;56279;47.902;12.308;2023-05-24T02:10:26;95480.69;;;13.92;92.32
69171;BME280;56279;47.902;12.308;2023-05-24T02:12:30;95482.84;;;13.90;92.36
69171;BME280;56279;47.902;12.308;2023-05-24T02:14:32;95473.63;;;13.87;91.91
69171;BME280;56279;47.902;12.308;2023-05-24T02:16:33;95477.94;;;13.83;92.18
69171;BME280;56279;47.902;12.308;2023-05-24T02:18:45;95478.53;;;13.80;92.26
69171;BME280;56279;47.902;12.308;2023-05-24T02:20:48;95481.16;;;13.80;92.09
69171;BME280;56279;47.902;12.308;2023-05-24T02:22:50;95475.06;;;13.79;92.12
69171;BME280;56279;47.902;12.308;2023-05-24T02:24:52;95479.31;;;13.80;91.89
69171;BME280;56279;47.902;12.308;2023-05-24T02:26:53;95475.88;;;13.80;91.96
69171;BME280;56279;47.902;12.308;2023-05-24T02:28:56;95476.97;;;13.79;92.11
69171;BME280;56279;47.902;12.308;2023-05-24T02:30:57;95477.22;;;13.77;92.18
69171;BME280;56279;47.902;12.308;2023-05-24T02:32:59;95476.75;;;13.75;92.09
69171;BME280;56279;47.902;12.308;2023-05-24T02:35:00;95485.81;;;13.74;92.11
69171;BME280;56279;47.902;12.308;2023-05-24T02:37:02;95475.47;;;13.73;91.94
69171;BME280;56279;47.902;12.308;2023-05-24T02:39:04;95474.66;;;13.72;92.18
69171;BME280;56279;47.902;12.308;2023-05-24T02:41:06;95475.47;;;13.73;92.25
69171;BME280;56279;47.902;12.308;2023-05-24T02:43:09;95473.59;;;13.73;92.23
69171;BME280;56279;47.902;12.308;2023-05-24T02:45:13;95474.41;;;13.74;92.14
69171;BME280;56279;47.902;12.308;2023-05-24T02:47:14;95472.00;;;13.72;91.95
69171;BME280;56279;47.902;12.308;2023-05-24T02:49:18;95471.53;;;13.70;91.83
69171;BME280;56279;47.902;12.308;2023-05-24T02:51:19;95469.47;;;13.67;91.77
69171;BME280;56279;47.902;12.308;2023-05-24T02:53:21;95468.69;;;13.67;91.91
69171;BME280;56279;47.902;12.308;2023-05-24T02:55:22;95478.50;;;13.66;91.86
69171;BME280;56279;47.902;12.308;2023-05-24T02:57:37;95470.31;;;13.63;91.89
69171;BME280;56279;47.902;12.308;2023-05-24T05:47:14;95500.22;;;13.36;91.38
69171;BME280;56279;47.902;12.308;2023-05-24T05:49:15;95503.66;;;13.37;91.44
69171;BME280;56279;47.902;12.308;2023-05-24T05:51:18;95502.78;;;13.41;91.63
69171;BME280;56279;47.902;12.308;2023-05-24T05:53:19;95513.88;;;13.43;91.49
69171;BME280;56279;47.902;12.308;2023-05-24T05:55:21;95508.09;;;13.41;91.09
69171;BME280;56279;47.902;12.308;2023-05-24T05:57:25;95511.63;;;13.37;91.37
69171;BME280;56279;47.902;12.308;2023-05-24T05:59:27;95513.47;;;13.36;91.34
69171;BME280;56279;47.902;12.308;2023-05-24T06:01:28;95510.31;;;13.34;91.50
69171;BME280;56279;47.902;12.308;2023-05-24T06:03:30;95510.31;;;13.34;91.80
69171;BME280;56279;47.902;12.308;2023-05-24T06:05:32;95515.31;;;13.36;91.51
69171;BME280;56279;47.902;12.308;2023-05-24T06:07:33;95514.75;;;13.39;91.44
69171;BME280;56279;47.902;12.308;2023-05-24T06:09:35;95510.75;;;13.41;91.43
69171;BME280;56279;47.902;12.308;2023-05-24T06:11:38;95520.00;;;13.44;90.88
69171;BME280;56279;47.902;12.308;2023-05-24T06:13:40;95516.03;;;13.41;91.25
69171;BME280;56279;47.902;12.308;2023-05-24T06:15:41;95517.41;;;13.39;91.15
69171;BME280;56279;47.902;12.308;2023-05-24T06:17:42;95520.34;;;13.37;91.49
69171;BME280;56279;47.902;12.308;2023-05-24T06:19:44;95518.47;;;13.38;91.49
69171;BME280;56279;47.902;12.308;2023-05-24T06:21:48;95530.38;;;13.40;91.75
69171;BME280;56279;47.902;12.308;2023-05-24T06:23:50;95527.44;;;13.42;92.03
69171;BME280;56279;47.902;12.308;2023-05-24T06:25:52;95525.28;;;13.44;91.84
69171;BME280;56279;47.902;12.308;2023-05-24T06:27:53;95521.84;;;13.43;91.91
69171;BME280;56279;47.902;12.308;2023-05-24T06:29:55;95527.63;;;13.45;92.06
69171;BME280;56279;47.902;12.308;2023-05-24T06:31:56;95524.19;;;13.45;92.26
69171;BME280;56279;47.902;12.308;2023-05-24T06:33:57;95523.41;;;13.44;92.04
69171;BME280;56279;47.902;12.308;2023-05-24T06:35:58;95529.31;;;13.41;92.21
69171;BME280;56279;47.902;12.308;2023-05-24T06:38:00;95524.00;;;13.41;92.15
69171;BME280;56279;47.902;12.308;2023-05-24T06:40:01;95528.28;;;13.37;92.59
69171;BME280;56279;47.902;12.308;2023-05-24T06:42:04;95527.53;;;13.37;92.69
69171;BME280;56279;47.902;12.308;2023-05-24T06:44:10;95525.13;;;13.35;92.52
69171;BME280;56279;47.902;12.308;2023-05-24T06:46:11;95531.47;;;13.39;92.55
69171;BME280;56279;47.902;12.308;2023-05-24T06:48:13;95523.22;;;13.41;92.80
69171;BME280;56279;47.902;12.308;2023-05-24T06:50:15;95525.28;;;13.44;92.85
69171;BME280;56279;47.902;12.308;2023-05-24T06:52:16;95522.03;;;13.47;93.06
69171;BME280;56279;47.902;12.308;2023-05-24T06:54:18;95526.19;;;13.53;92.68
69171;BME280;56279;47.902;12.308;2023-05-24T06:56:19;95532.50;;;13.57;92.32
69171;BME280;56279;47.902;12.308;2023-05-24T06:58:21;95529.34;;;13.55;92.52
69171;BME280;56279;47.902;12.308;2023-05-24T07:00:22;95533.28;;;13.57;92.62
69171;BME280;56279;47.902;12.308;2023-05-24T07:02:27;95533.06;;;13.54;92.41
69171;BME280;56279;47.902;12.308;2023-05-24T07:04:28;95533.44;;;13.47;92.72
69171;BME280;56279;47.902;12.308;2023-05-24T07:06:30;95527.34;;;13.47;92.55
69171;BME280;56279;47.902;12.308;2023-05-24T07:08:33;95528.34;;;13.51;92.48
69171;BME280;56279;47.902;12.308;2023-05-24T07:10:34;95527.59;;;13.64;92.15
69171;BME280;56279;47.902;12.308;2023-05-24T07:12:36;95519.41;;;13.79;91.94
69171;BME280;56279;47.902;12.308;2023-05-24T07:14:39;95535.84;;;13.95;91.29
69171;BME280;56279;47.902;12.308;2023-05-24T07:16:40;95529.25;;;14.06;90.91
69171;BME280;56279;47.902;12.308;2023-05-24T07:18:43;95533.50;;;14.20;90.64
69171;BME280;56279;47.902;12.308;2023-05-24T07:20:44;95530.72;;;14.30;90.24
69171;BME280;56279;47.902;12.308;2023-05-24T07:22:45;95527.56;;;14.42;90.33
69171;BME280;56279;47.902;12.308;2023-05-24T07:24:47;95528.72;;;14.49;90.09
69171;BME280;56279;47.902;12.308;2023-05-24T07:26:49;95527.84;;;14.54;90.12
69171;BME280;56279;47.902;12.308;2023-05-24T07:28:51;95520.97;;;14.53;89.87
69171;BME280;56279;47.902;12.308;2023-05-24T07:30:52;95523.13;;;14.51;89.52
69171;BME280;56279;47.902;12.308;2023-05-24T07:32:54;95518.88;;;14.50;90.00
69171;BME280;56279;47.902;12.308;2023-05-24T07:34:55;95522.66;;;14.49;89.38
69171;BME280;56279;47.902;12.308;2023-05-24T07:36:57;95526.38;;;14.48;89.85
69171;BME280;56279;47.902;12.308;2023-05-24T07:39:01;95525.88;;;14.46;89.75
69171;BME280;56279;47.902;12.308;2023-05-24T07:41:05;95524.03;;;14.46;89.61
69171;BME280;56279;47.902;12.308;2023-05-24T07:43:07;95525.88;;;14.46;89.60
69171;BME280;56279;47.902;12.308;2023-05-24T07:45:08;95518.41;;;14.48;89.49
69171;BME280;56279;47.902;12.308;2023-05-24T07:47:10;95524.19;;;14.50;89.12
69171;BME280;56279;47.902;12.308;2023-05-24T07:49:11;95523.94;;;14.51;89.26
69171;BME280;56279;47.902;12.308;2023-05-24T07:51:13;95524.00;;;14.60;89.53
69171;BME280;56279;47.902;12.308;2023-05-24T07:53:15;95528.13;;;14.66;89.05
69171;BME280;56279;47.902;12.308;2023-05-24T07:55:16;95522.53;;;14.68;88.84
69171;BME280;56279;47.902;12.308;2023-05-24T07:57:18;95516.81;;;14.74;88.73
69171;BME280;56279;47.902;12.308;2023-05-24T07:59:19;95520.94;;;14.80;88.70
69171;BME280;56279;47.902;12.308;2023-05-24T08:01:21;95518.53;;;14.92;87.89
69171;BME280;56279;47.902;12.308;2023-05-24T08:03:23;95517.13;;;15.08;88.03
69171;BME280;56279;47.902;12.308;2023-05-24T08:05:25;95511.06;;;15.30;87.52
69171;BME280;56279;47.902;12.308;2023-05-24T08:07:27;95509.22;;;15.53;86.25
69171;BME280;56279;47.902;12.308;2023-05-24T08:09:28;95518.16;;;15.79;86.06
69171;BME280;56279;47.902;12.308;2023-05-24T08:11:30;95515.31;;;16.06;85.24
69171;BME280;56279;47.902;12.308;2023-05-24T08:13:31;95517.47;;;16.26;84.09
69171;BME280;56279;47.902;12.308;2023-05-24T08:15:32;95513.69;;;16.27;83.63
69171;BME280;56279;47.902;12.308;2023-05-24T08:17:34;95511.16;;;16.22;83.66
69171;BME280;56279;47.902;12.308;2023-05-24T08:19:35;95513.19;;;16.17;83.76
69171;BME280;56279;47.902;12.308;2023-05-24T08:21:37;95522.69;;;16.09;83.86
69171;BME280;56279;47.902;12.308;2023-05-24T08:23:38;95517.69;;;16.08;83.66
69171;BME280;56279;47.902;12.308;2023-05-24T08:25:40;95520.16;;;16.04;83.47
69171;BME280;56279;47.902;12.308;2023-05-24T08:27:41;95523.75;;;16.00;84.14
69171;BME280;56279;47.902;12.308;2023-05-24T08:29:42;95522.59;;;15.92;83.13
69171;BME280;56279;47.902;12.308;2023-05-24T08:31:43;95527.69;;;15.80;83.46
69171;BME280;56279;47.902;12.308;2023-05-24T08:33:45;95525.56;;;15.68;83.94
69171;BME280;56279;47.902;12.308;2023-05-24T08:35:50;95518.66;;;15.59;84.00
69171;BME280;56279;47.902;12.308;2023-05-24T08:37:52;95518.41;;;15.47;84.51
69171;BME280;56279;47.902;12.308;2023-05-24T08:39:53;95530.22;;;15.41;84.46
69171;BME280;56279;47.902;12.308;2023-05-24T08:41:54;95524.53;;;15.34;84.22
69171;BME280;56279;47.902;12.308;2023-05-24T08:43:59;95525.38;;;15.20;84.82
69171;BME280;56279;47.902;12.308;2023-05-24T08:46:03;95526.97;;;15.08;84.83
69171;BME280;56279;47.902;12.308;2023-05-24T08:48:05;95527.97;;;14.98;85.52
69171;BME280;56279;47.902;12.308;2023-05-24T08:50:11;95531.53;;;14.94;85.67
69171;BME280;56279;47.902;12.308;2023-05-24T08:52:14;95532.63;;;14.93;85.90
69171;BME280;56279;47.902;12.308;2023-05-24T08:54:17;95527.69;;;15.00;86.04
69171;BME280;56279;47.902;12.308;2023-05-24T08:56:20;95520.88;;;15.07;86.60
69171;BME280;56279;47.902;12.308;2023-05-24T08:58:23;95521.25;;;15.14;87.03
69171;BME280;56279;47.902;12.308;2023-05-24T09:00:25;95532.25;;;15.21;86.94
69171;BME280;56279;47.902;12.308;2023-05-24T09:02:29;95522.28;;;15.27;86.52
69171;BME280;56279;47.902;12.308;2023-05-24T09:04:34;95529.34;;;15.32;86.41
69171;BME280;56279;47.902;12.308;2023-05-24T09:06:37;95518.72;;;15.32;86.12
69171;BME280;56279;47.902;12.308;2023-05-24T09:08:40;95524.84;;;15.32;85.90
69171;BME280;56279;47.902;12.308;2023-05-24T09:10:43;95525.00;;;15.36;85.96
69171;BME280;56279;47.902;12.308;2023-05-24T09:12:51;95528.34;;;15.41;86.10
69171;BME280;56279;47.902;12.308;2023-05-24T09:14:55;95532.97;;;15.49;85.56
69171;BME280;56279;47.902;12.308;2023-05-24T09:16:57;95532.56;;;15.56;85.41
69171;BME280;56279;47.902;12.308;2023-05-24T09:18:59;95532.72;;;15.59;85.33
69171;BME280;56279;47.902;12.308;2023-05-24T09:21:01;95536.66;;;15.62;85.06
69171;BME280;56279;47.902;12.308;2023-05-24T09:23:03;95531.66;;;15.60;85.28
69171;BME280;56279;47.902;12.308;2023-05-24T09:25:05;95523.97;;;15.59;85.30
69171;BME280;56279;47.902;12.308;2023-05-24T09:27:07;95528.19;;;15.60;85.09
69171;BME280;56279;47.902;12.308;2023-05-24T09:29:09;95533.72;;;15.63;84.09
69171;BME280;56279;47.902;12.308;2023-05-24T09:31:10;95531.22;;;15.67;83.40
69171;BME280;56279;47.902;12.308;2023-05-24T09:33:13;95534.34;;;15.69;82.91
69171;BME280;56279;47.902;12.308;2023-05-24T09:35:14;95537.31;;;15.67;83.58
69171;BME280;56279;47.902;12.308;2023-05-24T09:37:19;95532.31;;;15.66;84.02
69171;BME280;56279;47.902;12.308;2023-05-24T09:39:21;95531.22;;;15.67;84.47
69171;BME280;56279;47.902;12.308;2023-05-24T09:41:23;95531.69;;;15.69;84.68
69171;BME280;56279;47.902;12.308;2023-05-24T09:43:25;95538.28;;;15.71;84.75
69171;BME280;56279;47.902;12.308;2023-05-24T09:45:27;95525.56;;;15.68;84.98
69171;BME280;56279;47.902;12.308;2023-05-24T09:47:32;95535.84;;;15.61;84.42
69171;BME280;56279;47.902;12.308;2023-05-24T09:49:36;95536.38;;;15.63;85.05
69171;BME280;56279;47.902;12.308;2023-05-24T09:51:37;95527.75;;;15.66;85.10
69171;BME280;56279;47.902;12.308;2023-05-24T09:53:43;95531.41;;;15.70;84.13
69171;BME280;56279;47.902;12.308;2023-05-24T09:55:45;95522.50;;;15.75;83.19
69171;BME280;56279;47.902;12.308;2023-05-24T09:58:06;95530.50;;;15.75;82.93
69171;BME280;56279;47.902;12.308;2023-05-24T10:00:13;95533.75;;;15.72;81.73
69171;BME280;56279;47.902;12.308;2023-05-24T10:02:21;95529.16;;;15.64;81.58
69171;BME280;56279;47.902;12.308;2023-05-24T10:04:32;95535.81;;;15.53;82.35
69171;BME280;56279;47.902;12.308;2023-05-24T10:06:40;95537.59;;;15.44;83.42
69171;BME280;56279;47.902;12.308;2023-05-24T10:08:43;95535.63;;;15.36;84.52
69171;BME280;56279;47.902;12.308;2023-05-24T10:10:45;95543.75;;;15.31;84.81
69171;BME280;56279;47.902;12.308;2023-05-24T10:12:47;95533.72;;;15.28;85.22
69171;BME280;56279;47.902;12.308;2023-05-24T10:14:50;95540.59;;;15.29;85.61
69171;BME280;56279;47.902;12.308;2023-05-24T10:16:52;95542.16;;;15.30;85.91
69171;BME280;56279;47.902;12.308;2023-05-24T10:18:54;95543.75;;;15.31;86.00
69171;BME280;56279;47.902;12.308;2023-05-24T10:20:56;95542.16;;;15.30;86.19
69171;BME280;56279;47.902;12.308;2023-05-24T10:23:00;95541.38;;;15.29;86.36
69171;BME280;56279;47.902;12.308;2023-05-24T10:25:03;95544.03;;;15.29;85.64
69171;BME280;56279;47.902;12.308;2023-05-24T10:27:08;95546.69;;;15.29;85.90
69171;BME280;56279;47.902;12.308;2023-05-24T10:29:22;95550.63;;;15.32;85.88
69171;BME280;56279;47.902;12.308;2023-05-24T10:31:35;95545.31;;;15.32;85.93
69171;BME280;56279;47.902;12.308;2023-05-24T10:33:39;95548.75;;;15.32;85.81
69171;BME280;56279;47.902;12.308;2023-05-24T10:35:42;95550.16;;;15.30;86.17
69171;BME280;56279;47.902;12.308;2023-05-24T10:37:47;95543.38;;;15.23;85.98
69171;BME280;56279;47.902;12.308;2023-05-24T10:39:49;95544.78;;;15.21;86.06
69171;BME280;56279;47.902;12.308;2023-05-24T10:41:50;95548.03;;;15.18;86.46
69171;BME280;56279;47.902;12.308;2023-05-24T10:43:52;95548.91;;;15.13;86.88
69171;BME280;56279;47.902;12.308;2023-05-24T10:45:53;95555.94;;;15.09;86.89
69171;BME280;56279;47.902;12.308;2023-05-24T10:48:30;95558.97;;;15.03;87.23
69171;BME280;56279;47.902;12.308;2023-05-24T10:50:21;95561.44;;;14.99;87.79
69171;BME280;56279;47.902;12.308;2023-05-24T10:52:33;95560.75;;;14.94;87.83
69171;BME280;56279;47.902;12.308;2023-05-24T10:54:35;95561.97;;;14.88;88.14
69171;BME280;56279;47.902;12.308;2023-05-24T10:56:48;95562.53;;;14.85;88.13
69171;BME280;56279;47.902;12.308;2023-05-24T11:01:02;95557.63;;;14.78;88.44
69171;BME280;56279;47.902;12.308;2023-05-24T11:03:08;95554.97;;;14.78;88.74
69171;BME280;56279;47.902;12.308;2023-05-24T11:05:10;95555.47;;;14.80;88.81
69171;BME280;56279;47.902;12.308;2023-05-24T11:07:15;95557.06;;;14.81;88.88
69171;BME280;56279;47.902;12.308;2023-05-24T11:09:18;95557.84;;;14.82;88.73
69171;BME280;56279;47.902;12.308;2023-05-24T11:11:25;95554.56;;;14.85;88.69
69171;BME280;56279;47.902;12.308;2023-05-24T11:13:29;95556.34;;;14.89;88.45
69171;BME280;56279;47.902;12.308;2023-05-24T11:15:30;95556.22;;;14.94;88.22
69171;BME280;56279;47.902;12.308;2023-05-24T11:20:15;95559.59;;;14.86;87.89
69171;BME280;56279;47.902;12.308;2023-05-24T11:22:19;95554.66;;;14.80;88.17
69171;BME280;56279;47.902;12.308;2023-05-24T11:24:21;95556.56;;;14.79;88.15
69171;BME280;56279;47.902;12.308;2023-05-24T11:26:24;95559.22;;;14.79;87.98
69171;BME280;56279;47.902;12.308;2023-05-24T11:28:28;95559.00;;;14.76;88.33
69171;BME280;56279;47.902;12.308;2023-05-24T11:30:29;95557.72;;;14.73;88.13
69171;BME280;56279;47.902;12.308;2023-05-24T11:32:32;95560.59;;;14.77;88.77
69171;BME280;56279;47.902;12.308;2023-05-24T11:34:34;95555.47;;;14.80;88.52
69171;BME280;56279;47.902;12.308;2023-05-24T11:36:35;95550.75;;;14.91;88.34
69171;BME280;56279;47.902;12.308;2023-05-24T11:38:36;95550.34;;;14.97;88.26
69171;BME280;56279;47.902;12.308;2023-05-24T11:40:42;95548.84;;;15.05;88.12
69171;BME280;56279;47.902;12.308;2023-05-24T11:42:46;95543.13;;;15.11;87.46
69171;BME280;56279;47.902;12.308;2023-05-24T11:44:48;95551.25;;;15.15;87.20
69171;BME280;56279;47.902;12.308;2023-05-24T11:47:00;95549.72;;;15.14;87.12
69171;BME280;56279;47.902;12.308;2023-05-24T11:49:02;95550.59;;;15.09;87.06
69171;BME280;56279;47.902;12.308;2023-05-24T11:51:04;95547.38;;;14.99;87.43
69171;BME280;56279;47.902;12.308;2023-05-24T11:53:09;95553.41;;;14.91;88.09
69171;BME280;56279;47.902;12.308;2023-05-24T11:55:11;95549.56;;;14.83;88.46
69171;BME280;56279;47.902;12.308;2023-05-24T11:57:15;95549.75;;;14.73;88.67
69171;BME280;56279;47.902;12.308;2023-05-24T11:59:22;95547.81;;;14.65;88.93
69171;BME280;56279;47.902;12.308;2023-05-24T12:01:25;95556.78;;;14.56;88.80
69171;BME280;56279;47.902;12.308;2023-05-24T12:03:27;95554.88;;;14.42;89.59
69171;BME280;56279;47.902;12.308;2023-05-24T12:05:28;95559.19;;;14.25;88.95
69171;BME280;56279;47.902;12.308;2023-05-24T12:07:31;95561.59;;;14.08;88.77
69171;BME280;56279;47.902;12.308;2023-05-24T12:09:33;95558.63;;;13.96;88.91
69171;BME280;56279;47.902;12.308;2023-05-24T12:11:37;95565.50;;;13.83;89.16
69171;BME280;56279;47.902;12.308;2023-05-24T12:13:39;95566.63;;;13.77;88.94
69171;BME280;56279;47.902;12.308;2023-05-24T12:15:41;95563.88;;;13.68;88.67
69171;BME280;56279;47.902;12.308;2023-05-24T12:17:43;95571.03;;;13.68;88.41
69171;BME280;56279;47.902;12.308;2023-05-24T12:19:48;95567.88;;;13.66;88.02
69171;BME280;56279;47.902;12.308;2023-05-24T12:21:55;95565.16;;;13.71;88.03
69171;BME280;56279;47.902;12.308;2023-05-24T12:24:03;95573.81;;;13.76;87.88
69171;BME280;56279;47.902;12.308;2023-05-24T12:26:05;95566.28;;;13.83;87.98
69171;BME280;56279;47.902;12.308;2023-05-24T12:28:06;95570.41;;;13.90;87.97
69171;BME280;56279;47.902;12.308;2023-05-24T12:30:08;95563.94;;;13.96;87.88
69171;BME280;56279;47.902;12.308;2023-05-24T12:32:10;95569.16;;;14.01;87.69
69171;BME280;56279;47.902;12.308;2023-05-24T12:34:16;95575.84;;;13.98;87.65
69171;BME280;56279;47.902;12.308;2023-05-24T12:36:18;95577.72;;;13.98;87.97
69171;BME280;56279;47.902;12.308;2023-05-24T12:38:19;95571.25;;;14.04;88.23
69171;BME280;56279;47.902;12.308;2023-05-24T12:40:25;95571.84;;;14.14;88.38
69171;BME280;56279;47.902;12.308;2023-05-24T12:42:26;95579.63;;;14.24;87.95
69171;BME280;56279;47.902;12.308;2023-05-24T12:44:33;95572.41;;;14.30;87.58
69171;BME280;56279;47.902;12.308;2023-05-24T12:46:35;95578.91;;;14.37;87.37
69171;BME280;56279;47.902;12.308;2023-05-24T12:48:36;95574.75;;;14.45;86.90
69171;BME280;56279;47.902;12.308;2023-05-24T12:50:37;95590.31;;;14.51;86.49
69171;BME280;56279;47.902;12.308;2023-05-24T12:52:39;95586.97;;;14.60;86.50
69171;BME280;56279;47.902;12.308;2023-05-24T12:54:40;95583.41;;;14.64;86.30
69171;BME280;56279;47.902;12.308;2023-05-24T12:56:41;95582.63;;;14.64;86.46
69171;BME280;56279;47.902;12.308;2023-05-24T12:58:45;95587.19;;;14.63;86.52
69171;BME280;56279;47.902;12.308;2023-05-24T13:00:46;95585.91;;;14.61;86.18
69171;BME280;56279;47.902;12.308;2023-05-24T13:02:50;95580.84;;;14.59;86.65
69171;BME280;56279;47.902;12.308;2023-05-24T13:04:52;95574.47;;;14.60;86.55
69171;BME280;56279;47.902;12.308;2023-05-24T13:06:54;95579.56;;;14.57;85.97
69171;BME280;56279;47.902;12.308;2023-05-24T13:08:55;95576.44;;;14.54;86.35
69171;BME280;56279;47.902;12.308;2023-05-24T13:10:56;95572.81;;;14.50;86.68
69171;BME280;56279;47.902;12.308;2023-05-24T13:12:58;95575.16;;;14.52;86.67
69171;BME280;56279;47.902;12.308;2023-05-24T13:14:59;95578.81;;;14.56;86.44
69171;BME280;56279;47.902;12.308;2023-05-24T13:17:00;95580.84;;;14.59;86.14
69171;BME280;56279;47.902;12.308;2023-05-24T13:19:02;95586.66;;;14.61;86.14
69171;BME280;56279;47.902;12.308;2023-05-24T13:21:04;95581.88;;;14.63;85.79
69171;BME280;56279;47.902;12.308;2023-05-24T13:23:05;95580.47;;;14.66;86.21
69171;BME280;56279;47.902;12.308;2023-05-24T13:25:07;95585.41;;;14.72;86.31
69171;BME280;56279;47.902;12.308;2023-05-24T13:27:10;95586.97;;;14.73;86.27
69171;BME280;56279;47.902;12.308;2023-05-24T13:29:11;95587.66;;;14.79;86.56
69171;BME280;56279;47.902;12.308;2023-05-24T13:31:13;95589.41;;;14.83;86.53
69171;BME280;56279;47.902;12.308;2023-05-24T13:33:14;95584.28;;;14.87;86.69
69171;BME280;56279;47.902;12.308;2023-05-24T13:35:16;95585.56;;;14.89;86.51
69171;BME280;56279;47.902;12.308;2023-05-24T13:37:17;95589.50;;;14.92;86.62
69171;BME280;56279;47.902;12.308;2023-05-24T13:39:20;95588.91;;;14.95;86.82
69171;BME280;56279;47.902;12.308;2023-05-24T13:41:22;95593.44;;;14.94;87.06
69171;BME280;56279;47.902;12.308;2023-05-24T13:43:23;95593.25;;;14.91;87.00
69171;BME280;56279;47.902;12.308;2023-05-24T13:45:25;95591.97;;;14.88;86.65
69171;BME280;56279;47.902;12.308;2023-05-24T13:47:26;95591.19;;;14.88;86.69
69171;BME280;56279;47.902;12.308;2023-05-24T13:49:28;95593.53;;;14.89;86.62